sensor_id;sensor_type;location;lat;lon;timestamp;P1;durP1;ratioP1;P2;durP2;ratioP2
22068;SDS011;13887;57.196;-2.100;2023-05-07T00:01:34;12.27;;;11.87;;
22068;SDS011;13887;57.196;-2.100;2023-05-07T00:04:01;12.37;;;11.97;;
22068;SDS011;13887;57.196;-2.100;2023-05-07T00:06:29;12.37;;;11.97;;
22068;SDS011;13887;57.196;-2.100;2023-05-07T00:08:56;12.67;;;12.27;;
22068;SDS011;13887;57.196;-2.100;2023-05-07T00:11:25;12.80;;;12.40;;
22068;SDS011;13887;57.196;-2.100;2023-05-07T00:13:52;12.20;;;11.80;;
22068;SDS011;13887;57.196;-2.100;2023-05-07T00:16:19;12.80;;;12.40;;
22068;SDS011;13887;57.196;-2.100;2023-05-07T00:18:46;12.20;;;11.80;;
22068;SDS011;13887;57.196;-2.100;2023-05-07T00:21:13;12.10;;;11.70;;
22068;SDS011;13887;57.196;-2.100;2023-05-07T00:23:40;12.47;;;12.07;;
22068;SDS011;13887;57.196;-2.100;2023-05-07T00:26:07;12.23;;;11.83;;
22068;SDS011;13887;57.196;-2.100;2023-05-07T00:28:34;12.17;;;11.77;;
22068;SDS011;13887;57.196;-2.100;2023-05-07T00:31:01;11.93;;;11.53;;
22068;SDS011;13887;57.196;-2.100;2023-05-07T00:33:28;11.73;;;11.33;;
22068;SDS011;13887;57.196;-2.100;2023-05-07T00:35:55;11.83;;;11.43;;
22068;SDS011;13887;57.196;-2.100;2023-05-07T00:38:21;12.20;;;11.80;;
22068;SDS011;13887;57.196;-2.100;2023-05-07T00:40:48;12.03;;;11.63;;
22068;SDS011;13887;57.196;-2.100;2023-05-07T00:43:15;12.20;;;11.80;;
22068;SDS011;13887;57.196;-2.100;2023-05-07T00:45:43;12.30;;;11.90;;
22068;SDS011;13887;57.196;-2.100;2023-05-07T00:48:10;12.10;;;11.70;;
22068;SDS011;13887;57.196;-2.100;2023-05-07T00:50:37;12.80;;;12.40;;
22068;SDS011;13887;57.196;-2.100;2023-05-07T00:53:04;12.43;;;12.03;;
22068;SDS011;13887;57.196;-2.100;2023-05-07T00:55:32;12.50;;;12.10;;
22068;SDS011;13887;57.196;-2.100;2023-05-07T00:57:59;12.23;;;11.83;;
22068;SDS011;13887;57.196;-2.100;2023-05-07T01:00:26;12.50;;;12.10;;
22068;SDS011;13887;57.196;-2.100;2023-05-07T01:02:53;12.73;;;12.33;;
22068;SDS011;13887;57.196;-2.100;2023-05-07T01:05:21;12.30;;;11.90;;
22068;SDS011;13887;57.196;-2.100;2023-05-07T01:07:52;11.90;;;11.50;;
22068;SDS011;13887;57.196;-2.100;2023-05-07T01:10:21;11.67;;;11.27;;
22068;SDS011;13887;57.196;-2.100;2023-05-07T01:12:49;12.33;;;11.93;;
22068;SDS011;13887;57.196;-2.100;2023-05-07T01:15:16;12.13;;;11.73;;
22068;SDS011;13887;57.196;-2.100;2023-05-07T01:17:44;12.57;;;12.17;;
22068;SDS011;13887;57.196;-2.100;2023-05-07T01:20:18;12.37;;;11.97;;
22068;SDS011;13887;57.196;-2.100;2023-05-07T01:22:48;12.07;;;11.67;;
22068;SDS011;13887;57.196;-2.100;2023-05-07T01:25:15;12.03;;;11.63;;
22068;SDS011;13887;57.196;-2.100;2023-05-07T01:27:48;12.60;;;12.20;;
22068;SDS011;13887;57.196;-2.100;2023-05-07T01:30:15;12.50;;;12.10;;
22068;SDS011;13887;57.196;-2.100;2023-05-07T01:35:15;12.10;;;11.70;;
22068;SDS011;13887;57.196;-2.100;2023-05-07T01:37:47;12.10;;;11.70;;
22068;SDS011;13887;57.196;-2.100;2023-05-07T01:40:14;12.10;;;11.70;;
22068;SDS011;13887;57.196;-2.100;2023-05-07T01:42:42;11.90;;;11.50;;
22068;SDS011;13887;57.196;-2.100;2023-05-07T01:45:10;12.20;;;11.80;;
22068;SDS011;13887;57.196;-2.100;2023-05-07T01:47:37;12.13;;;11.73;;
22068;SDS011;13887;57.196;-2.100;2023-05-07T01:50:06;12.40;;;12.00;;
22068;SDS011;13887;57.196;-2.100;2023-05-07T01:52:38;12.30;;;11.90;;
22068;SDS011;13887;57.196;-2.100;2023-05-07T01:55:05;12.17;;;11.77;;
22068;SDS011;13887;57.196;-2.100;2023-05-07T01:57:33;12.30;;;11.90;;
22068;SDS011;13887;57.196;-2.100;2023-05-07T02:00:00;12.10;;;11.70;;
22068;SDS011;13887;57.196;-2.100;2023-05-07T02:02:40;12.60;;;12.20;;
22068;SDS011;13887;57.196;-2.100;2023-05-07T02:05:16;12.23;;;11.83;;
22068;SDS011;13887;57.196;-2.100;2023-05-07T02:07:47;12.33;;;11.93;;
22068;SDS011;13887;57.196;-2.100;2023-05-07T02:10:15;12.27;;;11.87;;
22068;SDS011;13887;57.196;-2.100;2023-05-07T02:12:42;12.30;;;11.90;;
22068;SDS011;13887;57.196;-2.100;2023-05-07T02:15:09;11.97;;;11.57;;
22068;SDS011;13887;57.196;-2.100;2023-05-07T02:17:57;12.07;;;11.67;;
22068;SDS011;13887;57.196;-2.100;2023-05-07T02:20:34;12.57;;;12.17;;
22068;SDS011;13887;57.196;-2.100;2023-05-07T02:23:02;12.60;;;12.20;;
22068;SDS011;13887;57.196;-2.100;2023-05-07T02:25:29;12.03;;;11.63;;
22068;SDS011;13887;57.196;-2.100;2023-05-07T02:27:57;12.30;;;11.90;;
22068;SDS011;13887;57.196;-2.100;2023-05-07T02:30:36;12.10;;;11.70;;
22068;SDS011;13887;57.196;-2.100;2023-05-07T02:33:04;12.17;;;11.77;;
22068;SDS011;13887;57.196;-2.100;2023-05-07T02:35:31;12.03;;;11.63;;
22068;SDS011;13887;57.196;-2.100;2023-05-07T02:37:58;12.83;;;12.43;;
22068;SDS011;13887;57.196;-2.100;2023-05-07T02:40:26;12.37;;;11.97;;
22068;SDS011;13887;57.196;-2.100;2023-05-07T02:42:53;12.60;;;12.20;;
22068;SDS011;13887;57.196;-2.100;2023-05-07T02:45:20;12.60;;;12.20;;
22068;SDS011;13887;57.196;-2.100;2023-05-07T02:47:49;12.33;;;11.93;;
22068;SDS011;13887;57.196;-2.100;2023-05-07T02:50:16;12.47;;;12.07;;
22068;SDS011;13887;57.196;-2.100;2023-05-07T02:52:43;12.33;;;11.93;;
22068;SDS011;13887;57.196;-2.100;2023-05-07T02:55:10;12.23;;;11.83;;
22068;SDS011;13887;57.196;-2.100;2023-05-07T02:57:37;12.37;;;11.97;;
22068;SDS011;13887;57.196;-2.100;2023-05-07T03:00:15;12.60;;;12.20;;
22068;SDS011;13887;57.196;-2.100;2023-05-07T03:02:51;12.60;;;12.20;;
22068;SDS011;13887;57.196;-2.100;2023-05-07T03:05:18;12.07;;;11.67;;
22068;SDS011;13887;57.196;-2.100;2023-05-07T03:07:45;12.20;;;11.80;;
22068;SDS011;13887;57.196;-2.100;2023-05-07T03:10:14;12.40;;;12.00;;
22068;SDS011;13887;57.196;-2.100;2023-05-07T03:12:41;12.37;;;11.97;;
22068;SDS011;13887;57.196;-2.100;2023-05-07T03:15:11;12.13;;;11.73;;
22068;SDS011;13887;57.196;-2.100;2023-05-07T03:17:39;12.13;;;11.73;;
22068;SDS011;13887;57.196;-2.100;2023-05-07T03:20:09;12.27;;;11.87;;
22068;SDS011;13887;57.196;-2.100;2023-05-07T03:22:38;12.03;;;11.63;;
22068;SDS011;13887;57.196;-2.100;2023-05-07T03:25:06;12.23;;;11.83;;
22068;SDS011;13887;57.196;-2.100;2023-05-07T03:27:33;12.00;;;11.60;;
22068;SDS011;13887;57.196;-2.100;2023-05-07T03:30:00;12.07;;;11.67;;
22068;SDS011;13887;57.196;-2.100;2023-05-07T03:32:27;12.40;;;12.00;;
22068;SDS011;13887;57.196;-2.100;2023-05-07T03:34:55;12.10;;;11.70;;
22068;SDS011;13887;57.196;-2.100;2023-05-07T03:37:22;12.13;;;11.73;;
22068;SDS011;13887;57.196;-2.100;2023-05-07T03:39:49;11.97;;;11.57;;
22068;SDS011;13887;57.196;-2.100;2023-05-07T03:42:16;12.07;;;11.67;;
22068;SDS011;13887;57.196;-2.100;2023-05-07T03:44:44;12.00;;;11.60;;
22068;SDS011;13887;57.196;-2.100;2023-05-07T03:47:11;11.90;;;11.50;;
22068;SDS011;13887;57.196;-2.100;2023-05-07T03:49:39;12.00;;;11.60;;
22068;SDS011;13887;57.196;-2.100;2023-05-07T03:52:07;12.30;;;11.90;;
22068;SDS011;13887;57.196;-2.100;2023-05-07T03:54:34;12.13;;;11.73;;
22068;SDS011;13887;57.196;-2.100;2023-05-07T03:57:01;12.50;;;12.10;;
22068;SDS011;13887;57.196;-2.100;2023-05-07T03:59:28;12.40;;;12.00;;
22068;SDS011;13887;57.196;-2.100;2023-05-07T04:01:55;12.10;;;11.70;;
22068;SDS011;13887;57.196;-2.100;2023-05-07T04:04:25;12.40;;;12.00;;
22068;SDS011;13887;57.196;-2.100;2023-05-07T04:06:52;12.30;;;11.90;;
22068;SDS011;13887;57.196;-2.100;2023-05-07T04:09:20;12.63;;;12.23;;
22068;SDS011;13887;57.196;-2.100;2023-05-07T04:11:47;11.77;;;11.37;;
22068;SDS011;13887;57.196;-2.100;2023-05-07T04:14:14;12.30;;;11.90;;
22068;SDS011;13887;57.196;-2.100;2023-05-07T04:16:41;12.13;;;11.73;;
22068;SDS011;13887;57.196;-2.100;2023-05-07T04:19:08;11.90;;;11.50;;
22068;SDS011;13887;57.196;-2.100;2023-05-07T04:21:37;12.30;;;11.90;;
22068;SDS011;13887;57.196;-2.100;2023-05-07T04:24:04;12.27;;;11.87;;
22068;SDS011;13887;57.196;-2.100;2023-05-07T04:26:31;12.20;;;11.80;;
22068;SDS011;13887;57.196;-2.100;2023-05-07T04:28:58;11.60;;;11.20;;
22068;SDS011;13887;57.196;-2.100;2023-05-07T04:31:30;11.73;;;11.33;;
22068;SDS011;13887;57.196;-2.100;2023-05-07T04:33:58;12.40;;;12.00;;
22068;SDS011;13887;57.196;-2.100;2023-05-07T04:36:26;12.30;;;11.90;;
22068;SDS011;13887;57.196;-2.100;2023-05-07T04:39:02;12.20;;;11.80;;
22068;SDS011;13887;57.196;-2.100;2023-05-07T04:41:29;12.43;;;12.03;;
22068;SDS011;13887;57.196;-2.100;2023-05-07T04:43:57;12.40;;;12.00;;
22068;SDS011;13887;57.196;-2.100;2023-05-07T04:46:28;11.90;;;11.50;;
22068;SDS011;13887;57.196;-2.100;2023-05-07T04:48:56;12.63;;;12.23;;
22068;SDS011;13887;57.196;-2.100;2023-05-07T04:51:23;12.00;;;11.60;;
22068;SDS011;13887;57.196;-2.100;2023-05-07T04:53:50;12.10;;;11.70;;
22068;SDS011;13887;57.196;-2.100;2023-05-07T04:56:17;12.33;;;11.93;;
22068;SDS011;13887;57.196;-2.100;2023-05-07T04:58:45;12.43;;;12.03;;
22068;SDS011;13887;57.196;-2.100;2023-05-07T05:01:14;12.53;;;12.13;;
22068;SDS011;13887;57.196;-2.100;2023-05-07T05:03:42;12.60;;;12.20;;
22068;SDS011;13887;57.196;-2.100;2023-05-07T05:06:09;12.40;;;12.00;;
22068;SDS011;13887;57.196;-2.100;2023-05-07T05:08:37;12.53;;;12.13;;
22068;SDS011;13887;57.196;-2.100;2023-05-07T05:11:04;12.73;;;12.33;;
22068;SDS011;13887;57.196;-2.100;2023-05-07T05:13:33;12.80;;;12.40;;
22068;SDS011;13887;57.196;-2.100;2023-05-07T05:16:07;12.50;;;12.10;;
22068;SDS011;13887;57.196;-2.100;2023-05-07T05:18:34;12.87;;;12.47;;
22068;SDS011;13887;57.196;-2.100;2023-05-07T05:21:01;12.77;;;12.37;;
22068;SDS011;13887;57.196;-2.100;2023-05-07T05:23:30;12.60;;;12.20;;
22068;SDS011;13887;57.196;-2.100;2023-05-07T05:25:57;12.60;;;12.20;;
22068;SDS011;13887;57.196;-2.100;2023-05-07T05:28:28;12.47;;;12.07;;
22068;SDS011;13887;57.196;-2.100;2023-05-07T05:30:55;12.70;;;12.30;;
22068;SDS011;13887;57.196;-2.100;2023-05-07T05:33:24;12.60;;;12.20;;
22068;SDS011;13887;57.196;-2.100;2023-05-07T05:35:53;12.40;;;12.00;;
22068;SDS011;13887;57.196;-2.100;2023-05-07T05:38:21;12.70;;;12.30;;
22068;SDS011;13887;57.196;-2.100;2023-05-07T05:40:48;12.57;;;12.17;;
22068;SDS011;13887;57.196;-2.100;2023-05-07T05:43:15;12.63;;;12.23;;
22068;SDS011;13887;57.196;-2.100;2023-05-07T05:45:42;12.67;;;12.27;;
22068;SDS011;13887;57.196;-2.100;2023-05-07T05:48:09;12.40;;;12.00;;
22068;SDS011;13887;57.196;-2.100;2023-05-07T05:50:37;12.30;;;11.90;;
22068;SDS011;13887;57.196;-2.100;2023-05-07T05:53:04;12.57;;;12.17;;
22068;SDS011;13887;57.196;-2.100;2023-05-07T05:55:32;12.70;;;12.30;;
22068;SDS011;13887;57.196;-2.100;2023-05-07T05:58:02;12.87;;;12.47;;
22068;SDS011;13887;57.196;-2.100;2023-05-07T06:00:33;12.50;;;12.10;;
22068;SDS011;13887;57.196;-2.100;2023-05-07T06:03:03;12.30;;;11.90;;
22068;SDS011;13887;57.196;-2.100;2023-05-07T06:05:30;12.67;;;12.27;;
22068;SDS011;13887;57.196;-2.100;2023-05-07T06:07:57;12.77;;;12.37;;
22068;SDS011;13887;57.196;-2.100;2023-05-07T06:10:28;12.70;;;12.30;;
22068;SDS011;13887;57.196;-2.100;2023-05-07T06:12:56;12.27;;;11.87;;
22068;SDS011;13887;57.196;-2.100;2023-05-07T06:15:23;12.63;;;12.23;;
22068;SDS011;13887;57.196;-2.100;2023-05-07T06:17:51;12.80;;;12.40;;
22068;SDS011;13887;57.196;-2.100;2023-05-07T06:20:19;12.70;;;12.30;;
22068;SDS011;13887;57.196;-2.100;2023-05-07T06:22:46;12.50;;;12.10;;
22068;SDS011;13887;57.196;-2.100;2023-05-07T06:25:14;12.67;;;12.27;;
22068;SDS011;13887;57.196;-2.100;2023-05-07T06:27:42;12.43;;;12.03;;
22068;SDS011;13887;57.196;-2.100;2023-05-07T06:30:09;12.27;;;11.87;;
22068;SDS011;13887;57.196;-2.100;2023-05-07T06:32:37;12.60;;;12.20;;
22068;SDS011;13887;57.196;-2.100;2023-05-07T06:35:04;12.53;;;12.13;;
22068;SDS011;13887;57.196;-2.100;2023-05-07T06:37:34;12.30;;;11.90;;
22068;SDS011;13887;57.196;-2.100;2023-05-07T06:40:04;12.33;;;11.93;;
22068;SDS011;13887;57.196;-2.100;2023-05-07T06:42:36;12.10;;;11.70;;
22068;SDS011;13887;57.196;-2.100;2023-05-07T06:45:36;12.17;;;11.77;;
22068;SDS011;13887;57.196;-2.100;2023-05-07T06:48:04;12.90;;;12.50;;
22068;SDS011;13887;57.196;-2.100;2023-05-07T06:50:39;12.63;;;12.23;;
22068;SDS011;13887;57.196;-2.100;2023-05-07T06:53:06;12.10;;;11.70;;
22068;SDS011;13887;57.196;-2.100;2023-05-07T06:55:33;12.17;;;11.77;;
22068;SDS011;13887;57.196;-2.100;2023-05-07T06:58:00;11.80;;;11.40;;
22068;SDS011;13887;57.196;-2.100;2023-05-07T07:00:28;11.77;;;11.37;;
22068;SDS011;13887;57.196;-2.100;2023-05-07T07:02:55;12.07;;;11.67;;
22068;SDS011;13887;57.196;-2.100;2023-05-07T07:05:26;12.07;;;11.67;;
22068;SDS011;13887;57.196;-2.100;2023-05-07T07:07:53;11.87;;;11.47;;
22068;SDS011;13887;57.196;-2.100;2023-05-07T07:10:21;11.93;;;11.53;;
22068;SDS011;13887;57.196;-2.100;2023-05-07T07:12:50;11.93;;;11.53;;
22068;SDS011;13887;57.196;-2.100;2023-05-07T07:15:17;12.07;;;11.67;;
22068;SDS011;13887;57.196;-2.100;2023-05-07T07:17:44;11.93;;;11.53;;
22068;SDS011;13887;57.196;-2.100;2023-05-07T07:20:11;12.17;;;11.77;;
22068;SDS011;13887;57.196;-2.100;2023-05-07T07:22:39;12.70;;;12.30;;
22068;SDS011;13887;57.196;-2.100;2023-05-07T07:25:06;12.13;;;11.73;;
22068;SDS011;13887;57.196;-2.100;2023-05-07T07:27:37;12.13;;;11.73;;
22068;SDS011;13887;57.196;-2.100;2023-05-07T07:30:04;12.23;;;11.83;;
22068;SDS011;13887;57.196;-2.100;2023-05-07T07:32:34;12.57;;;12.17;;
22068;SDS011;13887;57.196;-2.100;2023-05-07T07:35:01;12.47;;;12.07;;
22068;SDS011;13887;57.196;-2.100;2023-05-07T07:37:28;12.70;;;12.30;;
22068;SDS011;13887;57.196;-2.100;2023-05-07T07:39:56;12.53;;;12.13;;
22068;SDS011;13887;57.196;-2.100;2023-05-07T07:42:24;12.40;;;12.00;;
22068;SDS011;13887;57.196;-2.100;2023-05-07T07:44:51;12.40;;;12.00;;
22068;SDS011;13887;57.196;-2.100;2023-05-07T07:47:21;12.50;;;12.10;;
22068;SDS011;13887;57.196;-2.100;2023-05-07T07:49:49;12.53;;;12.13;;
22068;SDS011;13887;57.196;-2.100;2023-05-07T07:52:17;12.73;;;12.33;;
22068;SDS011;13887;57.196;-2.100;2023-05-07T07:54:45;12.70;;;12.30;;
22068;SDS011;13887;57.196;-2.100;2023-05-07T07:57:12;12.60;;;12.20;;
22068;SDS011;13887;57.196;-2.100;2023-05-07T07:59:39;12.00;;;11.60;;
22068;SDS011;13887;57.196;-2.100;2023-05-07T08:02:07;12.40;;;12.00;;
22068;SDS011;13887;57.196;-2.100;2023-05-07T08:04:36;12.50;;;12.10;;
22068;SDS011;13887;57.196;-2.100;2023-05-07T08:07:05;12.57;;;12.17;;
22068;SDS011;13887;57.196;-2.100;2023-05-07T08:09:36;12.60;;;12.20;;
22068;SDS011;13887;57.196;-2.100;2023-05-07T08:12:06;12.70;;;12.30;;
22068;SDS011;13887;57.196;-2.100;2023-05-07T08:14:34;12.07;;;11.67;;
22068;SDS011;13887;57.196;-2.100;2023-05-07T08:17:04;12.30;;;11.90;;
22068;SDS011;13887;57.196;-2.100;2023-05-07T08:19:31;12.60;;;12.20;;
22068;SDS011;13887;57.196;-2.100;2023-05-07T08:21:58;11.93;;;11.53;;
22068;SDS011;13887;57.196;-2.100;2023-05-07T08:24:25;12.00;;;11.60;;
22068;SDS011;13887;57.196;-2.100;2023-05-07T08:26:53;12.63;;;12.23;;
22068;SDS011;13887;57.196;-2.100;2023-05-07T08:29:20;12.40;;;12.00;;
22068;SDS011;13887;57.196;-2.100;2023-05-07T08:31:47;12.57;;;12.17;;
22068;SDS011;13887;57.196;-2.100;2023-05-07T08:34:14;12.53;;;12.13;;
22068;SDS011;13887;57.196;-2.100;2023-05-07T08:36:44;12.40;;;12.00;;
22068;SDS011;13887;57.196;-2.100;2023-05-07T08:39:17;12.50;;;12.10;;
22068;SDS011;13887;57.196;-2.100;2023-05-07T08:41:48;12.67;;;12.27;;
22068;SDS011;13887;57.196;-2.100;2023-05-07T08:44:18;13.07;;;12.67;;
22068;SDS011;13887;57.196;-2.100;2023-05-07T08:46:50;12.97;;;12.57;;
22068;SDS011;13887;57.196;-2.100;2023-05-07T08:49:21;12.93;;;12.53;;
22068;SDS011;13887;57.196;-2.100;2023-05-07T08:51:49;12.17;;;11.77;;
22068;SDS011;13887;57.196;-2.100;2023-05-07T08:54:18;11.93;;;11.53;;
22068;SDS011;13887;57.196;-2.100;2023-05-07T08:56:47;12.47;;;12.07;;
22068;SDS011;13887;57.196;-2.100;2023-05-07T08:59:14;12.60;;;12.20;;
22068;SDS011;13887;57.196;-2.100;2023-05-07T09:01:42;12.40;;;12.00;;
22068;SDS011;13887;57.196;-2.100;2023-05-07T09:04:10;12.40;;;12.00;;
22068;SDS011;13887;57.196;-2.100;2023-05-07T09:06:39;12.30;;;11.90;;
22068;SDS011;13887;57.196;-2.100;2023-05-07T09:09:10;12.77;;;12.37;;
22068;SDS011;13887;57.196;-2.100;2023-05-07T09:11:41;12.73;;;12.33;;
22068;SDS011;13887;57.196;-2.100;2023-05-07T09:14:08;12.60;;;12.20;;
22068;SDS011;13887;57.196;-2.100;2023-05-07T09:16:39;12.90;;;12.50;;
22068;SDS011;13887;57.196;-2.100;2023-05-07T09:19:07;12.83;;;12.43;;
22068;SDS011;13887;57.196;-2.100;2023-05-07T09:21:35;12.93;;;12.53;;
22068;SDS011;13887;57.196;-2.100;2023-05-07T09:24:05;12.77;;;12.37;;
22068;SDS011;13887;57.196;-2.100;2023-05-07T09:26:37;13.10;;;12.70;;
22068;SDS011;13887;57.196;-2.100;2023-05-07T09:29:05;12.83;;;12.43;;
22068;SDS011;13887;57.196;-2.100;2023-05-07T09:31:36;12.70;;;12.30;;
22068;SDS011;13887;57.196;-2.100;2023-05-07T09:34:05;13.20;;;12.80;;
22068;SDS011;13887;57.196;-2.100;2023-05-07T09:36:34;13.00;;;12.60;;
22068;SDS011;13887;57.196;-2.100;2023-05-07T09:39:02;13.20;;;12.80;;
22068;SDS011;13887;57.196;-2.100;2023-05-07T09:41:30;13.37;;;12.97;;
22068;SDS011;13887;57.196;-2.100;2023-05-07T09:44:10;13.20;;;12.80;;
22068;SDS011;13887;57.196;-2.100;2023-05-07T09:46:42;13.17;;;12.77;;
22068;SDS011;13887;57.196;-2.100;2023-05-07T09:49:23;12.83;;;12.43;;
22068;SDS011;13887;57.196;-2.100;2023-05-07T09:52:00;12.90;;;12.50;;
22068;SDS011;13887;57.196;-2.100;2023-05-07T09:54:32;13.00;;;12.60;;
22068;SDS011;13887;57.196;-2.100;2023-05-07T09:57:01;13.17;;;12.77;;
22068;SDS011;13887;57.196;-2.100;2023-05-07T09:59:29;12.97;;;12.57;;
22068;SDS011;13887;57.196;-2.100;2023-05-07T10:02:00;13.73;;;13.23;;
22068;SDS011;13887;57.196;-2.100;2023-05-07T10:04:34;13.63;;;13.13;;
22068;SDS011;13887;57.196;-2.100;2023-05-07T10:07:02;12.97;;;12.57;;
22068;SDS011;13887;57.196;-2.100;2023-05-07T10:09:31;13.47;;;13.07;;
22068;SDS011;13887;57.196;-2.100;2023-05-07T10:11:59;13.13;;;12.73;;
22068;SDS011;13887;57.196;-2.100;2023-05-07T10:14:27;13.30;;;12.90;;
22068;SDS011;13887;57.196;-2.100;2023-05-07T10:16:55;13.30;;;12.90;;
22068;SDS011;13887;57.196;-2.100;2023-05-07T10:19:24;13.73;;;13.23;;
22068;SDS011;13887;57.196;-2.100;2023-05-07T10:21:55;13.17;;;12.77;;
22068;SDS011;13887;57.196;-2.100;2023-05-07T10:24:34;13.40;;;13.00;;
22068;SDS011;13887;57.196;-2.100;2023-05-07T10:27:10;13.63;;;13.13;;
22068;SDS011;13887;57.196;-2.100;2023-05-07T10:32:35;13.37;;;12.97;;
22068;SDS011;13887;57.196;-2.100;2023-05-07T10:35:00;13.57;;;13.10;;
22068;SDS011;13887;57.196;-2.100;2023-05-07T10:37:31;13.07;;;12.67;;
22068;SDS011;13887;57.196;-2.100;2023-05-07T10:39:58;13.40;;;12.97;;
22068;SDS011;13887;57.196;-2.100;2023-05-07T10:42:28;13.40;;;13.00;;
22068;SDS011;13887;57.196;-2.100;2023-05-07T10:44:55;13.53;;;13.10;;
22068;SDS011;13887;57.196;-2.100;2023-05-07T10:47:27;13.73;;;13.23;;
22068;SDS011;13887;57.196;-2.100;2023-05-07T10:52:34;13.73;;;13.23;;
22068;SDS011;13887;57.196;-2.100;2023-05-07T10:55:39;13.67;;;13.17;;
22068;SDS011;13887;57.196;-2.100;2023-05-07T10:58:27;14.00;;;13.50;;
22068;SDS011;13887;57.196;-2.100;2023-05-07T11:01:10;13.40;;;13.00;;
22068;SDS011;13887;57.196;-2.100;2023-05-07T11:06:59;13.90;;;13.40;;
22068;SDS011;13887;57.196;-2.100;2023-05-07T11:15:07;13.87;;;13.37;;
22068;SDS011;13887;57.196;-2.100;2023-05-07T11:18:20;14.27;;;13.77;;
22068;SDS011;13887;57.196;-2.100;2023-05-07T11:26:25;14.13;;;13.63;;
22068;SDS011;13887;57.196;-2.100;2023-05-07T11:28:53;14.63;;;14.13;;
22068;SDS011;13887;57.196;-2.100;2023-05-07T11:31:26;14.23;;;13.73;;
22068;SDS011;13887;57.196;-2.100;2023-05-07T11:33:58;14.33;;;13.83;;
22068;SDS011;13887;57.196;-2.100;2023-05-07T11:36:30;14.27;;;13.77;;
22068;SDS011;13887;57.196;-2.100;2023-05-07T11:39:00;13.90;;;13.40;;
22068;SDS011;13887;57.196;-2.100;2023-05-07T11:41:33;14.27;;;13.77;;
22068;SDS011;13887;57.196;-2.100;2023-05-07T11:44:02;14.37;;;13.87;;
22068;SDS011;13887;57.196;-2.100;2023-05-07T11:46:29;13.97;;;13.47;;
22068;SDS011;13887;57.196;-2.100;2023-05-07T11:48:57;13.93;;;13.43;;
22068;SDS011;13887;57.196;-2.100;2023-05-07T11:51:26;14.07;;;13.57;;
22068;SDS011;13887;57.196;-2.100;2023-05-07T11:53:54;14.30;;;13.80;;
22068;SDS011;13887;57.196;-2.100;2023-05-07T11:56:21;13.90;;;13.40;;
22068;SDS011;13887;57.196;-2.100;2023-05-07T11:58:48;12.97;;;12.57;;
22068;SDS011;13887;57.196;-2.100;2023-05-07T12:01:16;13.70;;;13.20;;
22068;SDS011;13887;57.196;-2.100;2023-05-07T12:03:43;13.70;;;13.20;;
22068;SDS011;13887;57.196;-2.100;2023-05-07T12:06:15;14.00;;;13.50;;
22068;SDS011;13887;57.196;-2.100;2023-05-07T12:08:43;13.43;;;13.03;;
22068;SDS011;13887;57.196;-2.100;2023-05-07T12:11:21;14.10;;;13.60;;
22068;SDS011;13887;57.196;-2.100;2023-05-07T12:13:50;13.80;;;13.30;;
22068;SDS011;13887;57.196;-2.100;2023-05-07T12:16:17;13.87;;;13.37;;
22068;SDS011;13887;57.196;-2.100;2023-05-07T12:18:46;13.33;;;12.93;;
22068;SDS011;13887;57.196;-2.100;2023-05-07T12:21:13;13.03;;;12.63;;
22068;SDS011;13887;57.196;-2.100;2023-05-07T12:23:40;12.90;;;12.50;;
22068;SDS011;13887;57.196;-2.100;2023-05-07T12:26:07;12.83;;;12.43;;
22068;SDS011;13887;57.196;-2.100;2023-05-07T12:28:38;12.87;;;12.47;;
22068;SDS011;13887;57.196;-2.100;2023-05-07T12:31:06;13.43;;;13.00;;
22068;SDS011;13887;57.196;-2.100;2023-05-07T12:33:34;13.23;;;12.83;;
22068;SDS011;13887;57.196;-2.100;2023-05-07T12:36:07;13.37;;;12.97;;
22068;SDS011;13887;57.196;-2.100;2023-05-07T12:38:35;13.17;;;12.77;;
22068;SDS011;13887;57.196;-2.100;2023-05-07T12:41:03;13.50;;;13.07;;
22068;SDS011;13887;57.196;-2.100;2023-05-07T12:43:31;13.57;;;13.13;;
22068;SDS011;13887;57.196;-2.100;2023-05-07T12:45:59;13.57;;;13.10;;
22068;SDS011;13887;57.196;-2.100;2023-05-07T12:48:28;13.30;;;12.90;;
22068;SDS011;13887;57.196;-2.100;2023-05-07T12:50:59;13.20;;;12.80;;
22068;SDS011;13887;57.196;-2.100;2023-05-07T12:53:27;13.27;;;12.87;;
22068;SDS011;13887;57.196;-2.100;2023-05-07T12:55:56;13.00;;;12.60;;
22068;SDS011;13887;57.196;-2.100;2023-05-07T12:58:25;12.97;;;12.57;;
22068;SDS011;13887;57.196;-2.100;2023-05-07T13:00:57;13.00;;;12.60;;
22068;SDS011;13887;57.196;-2.100;2023-05-07T13:03:30;12.63;;;12.23;;
22068;SDS011;13887;57.196;-2.100;2023-05-07T13:06:00;12.93;;;12.53;;
22068;SDS011;13887;57.196;-2.100;2023-05-07T13:11:00;12.67;;;12.27;;
22068;SDS011;13887;57.196;-2.100;2023-05-07T13:13:30;13.87;;;13.37;;
22068;SDS011;13887;57.196;-2.100;2023-05-07T13:15:58;13.53;;;13.10;;
22068;SDS011;13887;57.196;-2.100;2023-05-07T13:18:26;13.20;;;12.80;;
22068;SDS011;13887;57.196;-2.100;2023-05-07T13:20:55;13.70;;;13.20;;
22068;SDS011;13887;57.196;-2.100;2023-05-07T13:23:23;13.40;;;13.00;;
22068;SDS011;13887;57.196;-2.100;2023-05-07T13:25:50;13.20;;;12.80;;
22068;SDS011;13887;57.196;-2.100;2023-05-07T13:28:20;13.50;;;13.07;;
22068;SDS011;13887;57.196;-2.100;2023-05-07T13:30:47;14.60;;;14.10;;
22068;SDS011;13887;57.196;-2.100;2023-05-07T13:33:14;13.30;;;12.90;;
22068;SDS011;13887;57.196;-2.100;2023-05-07T13:35:44;13.20;;;12.80;;
22068;SDS011;13887;57.196;-2.100;2023-05-07T13:38:11;14.30;;;13.80;;
22068;SDS011;13887;57.196;-2.100;2023-05-07T13:40:38;14.17;;;13.67;;
22068;SDS011;13887;57.196;-2.100;2023-05-07T13:43:05;13.57;;;13.17;;
22068;SDS011;13887;57.196;-2.100;2023-05-07T13:45:32;13.07;;;12.67;;
22068;SDS011;13887;57.196;-2.100;2023-05-07T13:47:59;13.43;;;13.03;;
22068;SDS011;13887;57.196;-2.100;2023-05-07T13:50:26;13.37;;;12.97;;
22068;SDS011;13887;57.196;-2.100;2023-05-07T13:52:55;12.80;;;12.40;;
22068;SDS011;13887;57.196;-2.100;2023-05-07T13:55:23;13.63;;;13.20;;
22068;SDS011;13887;57.196;-2.100;2023-05-07T13:57:57;13.43;;;13.03;;
22068;SDS011;13887;57.196;-2.100;2023-05-07T14:00:25;12.97;;;12.57;;
22068;SDS011;13887;57.196;-2.100;2023-05-07T14:02:53;13.33;;;12.93;;
22068;SDS011;13887;57.196;-2.100;2023-05-07T14:05:21;13.30;;;12.90;;
22068;SDS011;13887;57.196;-2.100;2023-05-07T14:07:51;12.93;;;12.53;;
22068;SDS011;13887;57.196;-2.100;2023-05-07T14:10:19;12.80;;;12.40;;
22068;SDS011;13887;57.196;-2.100;2023-05-07T14:12:46;14.13;;;13.63;;
22068;SDS011;13887;57.196;-2.100;2023-05-07T14:15:14;14.30;;;13.80;;
22068;SDS011;13887;57.196;-2.100;2023-05-07T14:17:42;13.73;;;13.30;;
22068;SDS011;13887;57.196;-2.100;2023-05-07T14:20:11;13.93;;;13.43;;
22068;SDS011;13887;57.196;-2.100;2023-05-07T14:22:39;13.50;;;13.10;;
22068;SDS011;13887;57.196;-2.100;2023-05-07T14:25:06;13.07;;;12.67;;
22068;SDS011;13887;57.196;-2.100;2023-05-07T14:27:34;14.00;;;13.50;;
22068;SDS011;13887;57.196;-2.100;2023-05-07T14:30:01;13.33;;;12.93;;
22068;SDS011;13887;57.196;-2.100;2023-05-07T14:32:28;14.17;;;13.67;;
22068;SDS011;13887;57.196;-2.100;2023-05-07T14:34:55;13.73;;;13.23;;
22068;SDS011;13887;57.196;-2.100;2023-05-07T14:37:22;13.87;;;13.37;;
22068;SDS011;13887;57.196;-2.100;2023-05-07T14:39:50;13.97;;;13.47;;
22068;SDS011;13887;57.196;-2.100;2023-05-07T14:42:17;14.00;;;13.50;;
22068;SDS011;13887;57.196;-2.100;2023-05-07T14:44:45;14.10;;;13.60;;